createdAt,value
2023-03-12T00:00:15.598Z,2.10
2023-03-12T00:02:42.347Z,2.28
2023-03-12T00:05:09.612Z,2.20
2023-03-12T00:07:39.461Z,2.42
2023-03-12T00:10:07.373Z,2.58
2023-03-12T00:12:34.420Z,2.13
2023-03-12T00:15:01.476Z,2.10
2023-03-12T00:17:30.040Z,2.22
2023-03-12T00:19:57.236Z,2.28
2023-03-12T01:38:39.743Z,4.20
2023-03-12T01:43:36.572Z,4.30
2023-03-12T01:46:32.365Z,4.75
2023-03-12T01:49:02.112Z,4.10
2023-03-12T01:51:37.973Z,4.10
2023-03-12T01:54:10.688Z,4.30
2023-03-12T01:56:38.792Z,3.75
2023-03-12T01:59:13.979Z,4.85
2023-03-12T02:01:41.975Z,4.22
2023-03-12T02:04:09.118Z,3.70
2023-03-12T02:06:43.809Z,4.68
2023-03-12T02:09:12.665Z,4.38
2023-03-12T02:11:39.528Z,4.40
2023-03-12T02:14:06.355Z,4.40
2023-03-12T02:16:33.468Z,3.88
2023-03-12T02:19:02.481Z,4.05
2023-03-12T02:21:34.043Z,3.95
2023-03-12T02:24:36.132Z,4.22
2023-03-12T02:27:06.091Z,4.80
2023-03-12T02:29:34.246Z,4.30
2023-03-12T02:32:04.219Z,4.60
2023-03-12T02:34:31.064Z,4.43
2023-03-12T02:39:25.212Z,4.45
2023-03-12T02:41:55.847Z,4.57
2023-03-12T02:44:29.485Z,4.10
2023-03-12T02:46:59.303Z,4.25
2023-03-12T02:49:30.036Z,4.20
2023-03-12T02:51:57.266Z,4.25
2023-03-12T02:54:25.365Z,4.45
2023-03-12T02:56:52.705Z,4.40
2023-03-12T02:59:21.871Z,4.00
2023-03-12T03:01:54.403Z,4.40
2023-03-12T03:04:21.694Z,4.15
2023-03-12T03:06:48.782Z,4.32
2023-03-12T03:09:16.209Z,4.05
2023-03-12T03:11:43.062Z,3.17
2023-03-12T03:14:10.207Z,3.67
2023-03-12T03:16:37.319Z,3.95
2023-03-12T03:19:04.722Z,3.50
2023-03-12T03:21:32.587Z,3.60
2023-03-12T03:23:59.388Z,3.00
2023-03-12T03:28:52.825Z,3.20
2023-03-12T03:33:47.005Z,2.80
2023-03-12T03:36:14.971Z,2.70
2023-03-12T03:38:42.636Z,2.72
2023-03-12T03:41:09.346Z,2.13
2023-03-12T03:43:36.189Z,2.30
2023-03-12T03:46:05.740Z,2.50
2023-03-12T03:48:33.013Z,2.40
2023-03-12T03:51:01.900Z,2.28
2023-03-12T03:53:28.992Z,2.38
2023-03-12T03:55:56.062Z,2.28
2023-03-12T03:58:23.231Z,2.38
2023-03-12T04:00:50.246Z,2.35
2023-03-12T04:03:17.264Z,2.90
2023-03-12T04:05:45.323Z,2.40
2023-03-12T04:08:13.341Z,2.20
2023-03-12T04:11:00.313Z,2.40
2023-03-12T04:13:27.074Z,2.40
2023-03-12T04:18:20.787Z,2.20
2023-03-12T04:20:47.546Z,2.40
2023-03-12T04:25:40.987Z,2.50
2023-03-12T04:30:34.632Z,2.58
2023-03-12T04:33:01.348Z,2.15
2023-03-12T04:35:28.175Z,2.20
2023-03-12T04:37:54.987Z,2.50
2023-03-12T04:42:48.770Z,2.40
2023-03-12T04:45:15.804Z,2.50
2023-03-12T04:47:42.674Z,2.33
2023-03-12T04:50:10.391Z,2.40
2023-03-12T04:52:37.922Z,2.40
2023-03-12T04:55:05.788Z,2.20
2023-03-12T04:57:32.524Z,2.40
2023-03-12T04:59:59.330Z,2.40
2023-03-12T05:04:55.493Z,2.65
2023-03-12T05:07:22.246Z,2.80
2023-03-12T05:09:48.933Z,2.53
2023-03-12T05:12:15.704Z,2.55
2023-03-12T05:17:09.171Z,2.40
2023-03-12T05:19:35.897Z,2.38
2023-03-12T05:22:02.630Z,2.35
2023-03-12T05:24:29.381Z,2.70
2023-03-12T05:29:22.976Z,3.22
2023-03-12T05:31:49.904Z,2.92
2023-03-12T05:34:16.783Z,2.92
2023-03-12T05:39:10.236Z,2.80
2023-03-12T05:44:03.684Z,3.15
2023-03-12T05:46:30.466Z,3.40
2023-03-12T05:51:23.962Z,3.08
2023-03-12T05:56:18.598Z,2.97
2023-03-12T05:58:48.158Z,2.90
2023-03-12T06:01:34.421Z,3.17
2023-03-12T06:04:01.243Z,3.03
2023-03-12T06:08:57.142Z,2.85
2023-03-12T06:13:50.707Z,3.28
2023-03-12T06:16:26.230Z,3.20
2023-03-12T06:18:55.330Z,3.33
2023-03-12T06:21:24.752Z,3.85
2023-03-12T06:23:52.431Z,3.28
2023-03-12T06:26:21.418Z,3.00
2023-03-12T06:28:49.780Z,2.80
2023-03-12T06:31:17.455Z,3.22
2023-03-12T06:33:44.604Z,3.20
2023-03-12T06:36:12.003Z,2.88
2023-03-12T06:38:39.338Z,2.88
2023-03-12T06:41:08.480Z,3.13
2023-03-12T06:43:36.893Z,3.17
2023-03-12T06:46:04.752Z,3.17
2023-03-12T06:48:41.402Z,3.00
2023-03-12T06:51:13.126Z,2.90
2023-03-12T06:53:42.369Z,2.80
2023-03-12T06:56:09.944Z,2.67
2023-03-12T06:58:37.275Z,3.00
2023-03-12T07:01:04.912Z,3.17
2023-03-12T07:03:31.945Z,2.70
2023-03-12T07:05:59.318Z,2.70
2023-03-12T07:08:29.826Z,2.65
2023-03-12T07:11:00.758Z,3.10
2023-03-12T07:13:27.992Z,3.25
2023-03-12T07:18:21.680Z,3.10
2023-03-12T07:20:48.516Z,3.28
2023-03-12T07:23:15.388Z,2.97
2023-03-12T07:25:43.496Z,2.90
2023-03-12T07:28:11.617Z,3.20
2023-03-12T07:30:39.298Z,3.88
2023-03-12T07:33:08.889Z,3.13
2023-03-12T07:35:36.487Z,3.05
2023-03-12T07:38:03.983Z,2.78
2023-03-12T07:40:31.013Z,3.15
2023-03-12T07:42:58.163Z,3.50
2023-03-12T07:45:25.239Z,3.25
2023-03-12T07:47:52.195Z,2.67
2023-03-12T07:50:20.011Z,3.15
2023-03-12T07:52:47.165Z,3.00
2023-03-12T07:55:14.663Z,3.50
2023-03-12T07:58:14.658Z,3.25
2023-03-12T08:00:32.504Z,3.75
2023-03-12T08:03:56.507Z,2.75
2023-03-12T08:05:59.283Z,3.17
2023-03-12T08:08:26.421Z,2.95
2023-03-12T08:10:53.962Z,3.38
2023-03-12T08:13:22.838Z,3.10
2023-03-12T08:15:51.590Z,3.03
2023-03-12T08:18:19.490Z,3.60
2023-03-12T08:20:50.071Z,3.58
2023-03-12T08:23:16.905Z,3.40
2023-03-12T08:28:22.446Z,3.38
2023-03-12T08:30:51.863Z,3.20
2023-03-12T08:33:19.277Z,3.67
2023-03-12T08:35:47.117Z,3.03
2023-03-12T08:38:13.929Z,3.17
2023-03-12T08:43:10.099Z,3.30
2023-03-12T08:45:36.992Z,3.47
2023-03-12T08:48:05.789Z,3.25
2023-03-12T08:50:33.255Z,3.05
2023-03-12T08:53:00.153Z,3.22
2023-03-12T08:55:30.697Z,3.10
2023-03-12T08:57:57.659Z,2.80
2023-03-12T09:00:25.113Z,3.00
2023-03-12T09:02:53.593Z,3.20
2023-03-12T09:05:20.903Z,3.00
2023-03-12T09:07:49.922Z,3.13
2023-03-12T09:10:18.001Z,3.28
2023-03-12T09:12:45.196Z,3.40
2023-03-12T09:15:12.017Z,3.60
2023-03-12T09:20:08.490Z,3.05
2023-03-12T09:22:37.170Z,3.40
2023-03-12T09:25:05.737Z,2.80
2023-03-12T09:27:39.951Z,3.10
2023-03-12T09:30:08.634Z,3.22
2023-03-12T09:32:35.537Z,2.90
2023-03-12T09:35:02.327Z,3.40
2023-03-12T09:37:29.300Z,3.17
2023-03-12T09:39:56.126Z,3.97
2023-03-12T09:42:32.020Z,2.88
2023-03-12T09:45:02.406Z,2.70
2023-03-12T09:47:33.504Z,2.80
2023-03-12T09:50:18.944Z,2.83
2023-03-12T09:53:12.889Z,2.60
2023-03-12T09:55:42.838Z,2.30
2023-03-12T09:58:27.219Z,2.30
2023-03-12T10:01:34.825Z,2.40
2023-03-12T10:04:45.425Z,2.15
2023-03-12T10:07:53.251Z,2.33
2023-03-12T10:10:32.157Z,2.15
2023-03-12T10:13:17.098Z,2.28
2023-03-12T10:16:16.128Z,2.17
2023-03-12T10:18:59.450Z,1.90
2023-03-12T10:21:44.307Z,1.77
2023-03-12T10:24:25.555Z,2.03
2023-03-12T10:26:55.908Z,2.47
2023-03-12T10:29:39.898Z,1.85
2023-03-12T10:32:34.862Z,2.28
2023-03-12T10:35:23.357Z,2.40
2023-03-12T10:38:01.340Z,2.20
2023-03-12T10:40:34.690Z,2.67
2023-03-12T10:43:03.002Z,2.85
2023-03-12T10:45:41.789Z,3.53
2023-03-12T10:48:11.798Z,2.35
2023-03-12T10:50:40.500Z,2.65
2023-03-12T10:53:29.648Z,2.20
2023-03-12T10:56:00.939Z,2.00
2023-03-12T10:58:33.437Z,1.75
2023-03-12T11:01:02.253Z,2.22
2023-03-12T11:03:29.918Z,2.83
2023-03-12T11:06:03.249Z,2.28
2023-03-12T11:08:33.386Z,2.30
2023-03-12T11:11:02.052Z,2.20
2023-03-12T11:13:33.402Z,2.50
2023-03-12T11:16:20.212Z,2.42
2023-03-12T11:19:01.589Z,2.45
2023-03-12T11:21:30.800Z,2.10
2023-03-12T11:23:57.508Z,2.25
2023-03-12T11:29:02.894Z,2.97
2023-03-12T11:31:34.177Z,2.50
2023-03-12T11:34:07.331Z,2.33
2023-03-12T11:36:49.963Z,2.70
2023-03-12T11:40:14.987Z,2.83
2023-03-12T11:42:41.737Z,2.72
2023-03-12T11:48:18.928Z,2.53
2023-03-12T11:51:14.868Z,2.75
2023-03-12T11:54:03.403Z,2.78
2023-03-12T11:56:37.441Z,2.60
2023-03-12T11:59:37.667Z,2.53
2023-03-12T12:02:22.291Z,2.42
2023-03-12T12:05:23.110Z,2.53
2023-03-12T12:08:13.498Z,2.35
2023-03-12T12:11:04.520Z,2.83
2023-03-12T12:13:46.089Z,2.17
2023-03-12T12:16:30.979Z,2.50
2023-03-12T12:19:06.475Z,2.40
2023-03-12T12:21:50.181Z,2.33
2023-03-12T12:24:43.999Z,2.33
2023-03-12T12:27:30.153Z,2.40
2023-03-12T12:30:09.006Z,2.58
2023-03-12T12:33:01.220Z,2.10
2023-03-12T12:35:37.134Z,2.30
2023-03-12T12:38:33.056Z,2.20
2023-03-12T12:41:21.319Z,2.50
2023-03-12T12:44:04.721Z,2.50
2023-03-12T12:46:45.363Z,2.47
2023-03-12T12:49:12.139Z,2.45
2023-03-12T12:51:49.479Z,2.67
2023-03-12T12:54:26.594Z,2.33
2023-03-12T12:57:00.592Z,2.60
2023-03-12T12:59:57.383Z,2.70
2023-03-12T13:02:28.771Z,2.70
2023-03-12T13:04:59.881Z,2.70
2023-03-12T13:07:28.100Z,2.78
2023-03-12T13:09:57.155Z,2.72
2023-03-12T13:12:32.679Z,2.80
2023-03-12T13:15:01.414Z,2.83
2023-03-12T13:17:33.972Z,3.00
2023-03-12T13:20:11.039Z,3.00
2023-03-12T13:23:04.932Z,2.97
2023-03-12T13:25:32.078Z,2.67
2023-03-12T13:28:02.117Z,2.58
2023-03-12T13:30:34.745Z,2.97
2023-03-12T13:33:01.898Z,2.72
2023-03-12T13:35:39.610Z,3.20
2023-03-12T13:38:37.205Z,2.63
2023-03-12T13:41:06.350Z,2.90
2023-03-12T13:43:46.771Z,2.80
2023-03-12T13:46:16.267Z,2.72
2023-03-12T13:48:47.950Z,2.80
2023-03-12T13:51:19.669Z,3.20
2023-03-12T13:54:00.234Z,2.72
2023-03-12T13:56:30.907Z,2.50
2023-03-12T13:59:01.859Z,2.90
2023-03-12T14:01:37.340Z,2.92
2023-03-12T14:04:12.378Z,3.00
2023-03-12T14:06:59.066Z,3.00
2023-03-12T14:09:40.657Z,3.17
2023-03-12T14:12:16.312Z,3.20
2023-03-12T14:15:11.127Z,2.30
2023-03-12T14:17:39.399Z,3.05
2023-03-12T14:20:17.927Z,2.42
2023-03-12T14:22:50.145Z,2.78
2023-03-12T14:25:31.476Z,3.20
2023-03-12T14:27:58.468Z,2.80
2023-03-12T14:30:38.349Z,3.40
2023-03-12T14:33:05.550Z,2.40
2023-03-12T14:35:45.623Z,3.08
2023-03-12T14:38:30.888Z,3.22
2023-03-12T14:41:21.061Z,3.40
2023-03-12T14:43:52.209Z,3.08
2023-03-12T14:46:24.123Z,3.10
2023-03-12T14:48:53.158Z,3.58
2023-03-12T14:51:24.391Z,2.90
2023-03-12T14:53:52.487Z,2.90
2023-03-12T14:56:30.940Z,3.20
2023-03-12T14:58:59.761Z,3.00
2023-03-12T15:01:30.837Z,3.00
2023-03-12T15:04:03.856Z,3.20
2023-03-12T15:06:42.945Z,3.03
2023-03-12T15:09:18.106Z,3.70
2023-03-12T15:11:51.089Z,3.90
2023-03-12T15:14:18.061Z,2.97
2023-03-12T15:16:45.376Z,3.17
2023-03-12T15:19:20.243Z,2.80
2023-03-12T15:21:47.132Z,3.10
2023-03-12T15:24:14.465Z,2.90
2023-03-12T15:26:43.157Z,2.70
2023-03-12T15:29:26.425Z,3.20
2023-03-12T15:31:56.573Z,2.97
2023-03-12T15:34:33.168Z,3.17
2023-03-12T15:37:02.813Z,2.80
2023-03-12T15:39:35.347Z,2.95
2023-03-12T15:42:09.077Z,3.30
2023-03-12T15:44:46.047Z,2.88
2023-03-12T15:47:20.471Z,3.00
2023-03-12T15:49:54.736Z,2.65
2023-03-12T15:52:22.075Z,2.92
2023-03-12T15:55:12.204Z,3.05
2023-03-12T15:57:52.909Z,2.60
2023-03-12T16:00:26.437Z,3.22
2023-03-12T16:02:59.012Z,2.92
2023-03-12T16:05:33.112Z,2.80
2023-03-12T16:08:23.892Z,3.00
2023-03-12T16:10:50.819Z,2.88
2023-03-12T16:13:21.129Z,2.80
2023-03-12T16:15:48.919Z,2.47
2023-03-12T16:18:17.752Z,3.05
2023-03-12T16:20:45.392Z,2.97
2023-03-12T16:23:13.311Z,2.40
2023-03-12T16:25:44.124Z,2.80
2023-03-12T16:28:14.197Z,2.63
2023-03-12T16:30:41.510Z,2.75
2023-03-12T16:33:09.459Z,2.40
2023-03-12T16:35:36.566Z,2.28
2023-03-12T16:38:03.949Z,2.60
2023-03-12T16:40:37.017Z,2.72
2023-03-12T16:43:07.155Z,2.50
2023-03-12T16:45:36.414Z,2.60
2023-03-12T16:48:16.049Z,2.38
2023-03-12T16:50:50.936Z,2.65
2023-03-12T16:53:18.598Z,2.78
2023-03-12T16:56:00.879Z,2.75
2023-03-12T16:58:29.166Z,3.03
2023-03-12T17:00:56.677Z,2.42
2023-03-12T17:03:36.111Z,2.55
2023-03-12T17:06:05.403Z,2.67
2023-03-12T17:08:32.313Z,3.58
2023-03-12T17:10:59.899Z,2.63
2023-03-12T17:13:28.993Z,2.00
2023-03-12T17:15:56.693Z,2.10
2023-03-12T17:18:23.803Z,2.20
2023-03-12T17:20:51.920Z,2.00
2023-03-12T17:23:19.545Z,2.13
2023-03-12T17:25:46.496Z,2.38
2023-03-12T17:28:15.367Z,2.15
2023-03-12T17:30:43.127Z,2.50
2023-03-12T17:33:13.108Z,5.85
2023-03-12T17:35:40.148Z,6.13
2023-03-12T17:38:07.707Z,2.70
2023-03-12T17:40:36.055Z,2.30
2023-03-12T17:43:02.820Z,2.85
2023-03-12T17:45:29.673Z,2.85
2023-03-12T17:47:56.431Z,2.80
2023-03-12T17:50:23.148Z,2.78
2023-03-12T17:52:49.925Z,3.00
2023-03-12T17:55:16.776Z,2.83
2023-03-12T17:57:44.739Z,2.70
2023-03-12T18:00:13.091Z,2.63
2023-03-12T18:02:41.570Z,2.70
2023-03-12T18:05:10.779Z,2.22
2023-03-12T18:07:37.973Z,2.42
2023-03-12T18:10:07.652Z,4.57
2023-03-12T18:12:35.137Z,3.50
2023-03-12T18:15:02.038Z,3.38
2023-03-12T18:17:28.851Z,3.42
2023-03-12T18:19:55.585Z,3.63
2023-03-12T18:22:23.182Z,3.00
2023-03-12T18:24:50.159Z,3.28
2023-03-12T18:27:24.155Z,3.10
2023-03-12T18:29:50.868Z,3.30
2023-03-12T18:34:44.349Z,3.67
2023-03-12T18:37:11.153Z,3.70
2023-03-12T18:39:37.869Z,3.40
2023-03-12T18:44:31.492Z,3.90
2023-03-12T18:46:58.292Z,3.50
2023-03-12T18:49:25.265Z,4.20
2023-03-12T18:51:55.903Z,3.13
2023-03-12T18:54:24.830Z,2.95
2023-03-12T18:56:51.720Z,2.75
2023-03-12T18:59:18.665Z,3.00
2023-03-12T19:01:45.484Z,2.95
2023-03-12T19:04:16.190Z,3.38
2023-03-12T19:06:50.726Z,3.25
2023-03-12T19:09:18.599Z,3.65
2023-03-12T19:11:47.928Z,3.20
2023-03-12T19:14:14.869Z,3.30
2023-03-12T19:16:42.237Z,3.47
2023-03-12T19:19:09.132Z,3.75
2023-03-12T19:21:35.882Z,3.83
2023-03-12T19:24:02.673Z,3.20
2023-03-12T19:26:29.576Z,3.20
2023-03-12T19:28:56.370Z,4.20
2023-03-12T19:31:23.231Z,3.80
2023-03-12T19:33:50.084Z,3.78
2023-03-12T19:36:16.933Z,3.90
2023-03-12T19:38:43.701Z,3.70
2023-03-12T19:41:10.819Z,3.50
2023-03-12T19:43:38.094Z,3.42
2023-03-12T19:46:05.154Z,4.70
2023-03-12T19:48:32.114Z,4.10
2023-03-12T19:51:05.429Z,3.90
2023-03-12T19:53:32.313Z,3.53
2023-03-12T19:55:59.040Z,3.50
2023-03-12T20:00:52.597Z,3.70
2023-03-12T20:03:20.694Z,3.90
2023-03-12T20:05:47.586Z,4.18
2023-03-12T20:08:14.580Z,4.30
2023-03-12T20:10:41.452Z,3.97
2023-03-12T20:13:12.760Z,3.78
2023-03-12T20:15:40.265Z,4.90
2023-03-12T20:18:07.061Z,3.42
2023-03-12T20:20:33.885Z,4.03
2023-03-12T20:23:01.057Z,3.83
2023-03-12T20:25:27.791Z,4.57
2023-03-12T20:30:21.527Z,3.88
2023-03-12T20:35:15.070Z,4.03
2023-03-12T20:37:41.877Z,4.43
2023-03-12T20:40:09.205Z,3.95
2023-03-12T20:45:16.730Z,4.32
2023-03-12T20:47:43.624Z,4.68
2023-03-12T20:50:11.317Z,4.35
2023-03-12T20:52:38.305Z,4.55
2023-03-12T20:55:05.566Z,4.30
2023-03-12T20:57:32.344Z,4.50
2023-03-12T21:02:26.939Z,3.80
2023-03-12T21:04:54.023Z,3.80
2023-03-12T21:07:20.801Z,4.55
2023-03-12T21:12:14.289Z,3.78
2023-03-12T21:14:41.562Z,4.00
2023-03-12T21:17:13.340Z,4.65
2023-03-12T21:19:41.683Z,4.22
2023-03-12T21:22:09.042Z,4.07
2023-03-12T21:24:36.097Z,4.22
2023-03-12T21:27:03.462Z,3.85
2023-03-12T21:29:30.302Z,4.07
2023-03-12T21:31:57.496Z,4.10
2023-03-12T21:34:24.300Z,4.20
2023-03-12T21:39:18.071Z,4.05
2023-03-12T21:41:44.880Z,4.28
2023-03-12T21:44:11.656Z,3.85
2023-03-12T21:49:05.515Z,4.05
2023-03-12T21:51:32.258Z,4.40
2023-03-12T21:56:28.204Z,3.58
2023-03-12T21:58:57.200Z,4.40
2023-03-12T22:01:24.172Z,4.40
2023-03-12T22:03:51.156Z,3.90
2023-03-12T22:06:17.999Z,3.58
2023-03-12T22:08:48.018Z,2.95
2023-03-12T22:11:15.919Z,3.70
2023-03-12T22:13:42.915Z,3.60
2023-03-12T22:16:11.887Z,3.40
2023-03-12T22:18:46.428Z,3.25
2023-03-12T22:21:19.308Z,3.65
2023-03-12T22:23:51.009Z,4.00
2023-03-12T22:26:19.119Z,3.70
2023-03-12T22:28:57.413Z,4.07
2023-03-12T22:31:26.338Z,4.05
2023-03-12T22:33:53.438Z,3.53
2023-03-12T22:36:21.414Z,4.13
2023-03-12T22:38:48.977Z,3.97
2023-03-12T22:41:15.866Z,4.07
2023-03-12T22:43:42.796Z,4.53
2023-03-12T22:46:09.701Z,3.92
2023-03-12T22:48:36.838Z,4.25
2023-03-12T22:51:05.049Z,4.95
2023-03-12T22:53:32.655Z,4.95
2023-03-12T22:56:01.206Z,4.00
2023-03-12T22:58:28.924Z,5.15
2023-03-12T23:01:03.154Z,4.35
2023-03-12T23:03:31.439Z,5.30
2023-03-12T23:05:58.710Z,5.90
2023-03-12T23:08:25.977Z,5.18
2023-03-12T23:11:00.796Z,5.13
2023-03-12T23:13:30.056Z,5.00
2023-03-12T23:16:02.918Z,4.38
2023-03-12T23:18:29.839Z,3.50
2023-03-12T23:23:31.316Z,3.60
2023-03-12T23:26:00.135Z,3.38
2023-03-12T23:28:28.786Z,4.00
2023-03-12T23:31:00.841Z,3.63
2023-03-12T23:33:29.215Z,3.22
2023-03-12T23:36:03.706Z,3.70
2023-03-12T23:38:31.576Z,3.78
2023-03-12T23:41:12.481Z,3.90
2023-03-12T23:43:39.499Z,3.70
2023-03-12T23:46:07.977Z,3.80
2023-03-12T23:48:36.334Z,4.05
2023-03-12T23:51:10.694Z,3.90
2023-03-12T23:53:38.809Z,3.80
2023-03-12T23:56:08.440Z,3.90
2023-03-12T23:58:36.042Z,4.07
